Tropical Cyclones
[Index]
Main Index Home Page Stock Weather Photos Extreme Storms Discussion Storm News and Storm Chasing Reports Tropical Cyclones / Hurricanes / Typhoons Weather Data and Links Wild Fires / Bushfires Weather Observation Techniques Weather Picture Catalogue Tornado Pictures and Reports Stock Video Footage and DVDs for sale
Season 1996-1997 Tropical Cyclone PHIL Track Map
Season 1996-1997 Summaries: [BoM-AU] [JTWC-AU] [JTWC-SIO] [JTWC-SPAC] [JTWC-SH]
<<- Previous TC | BoM 1996-1997 Season | Next TC ->>

click for intensity scale information  Lat/long Grid: Show Hide

 Date Labels: Show Hide

Bureau of Meteorology Tropical Cyclone Data

Name: PHIL
Number: 797 / 199697_06

26 Dec 1996 00:00 UTC to 03 Jan 1997 01:00 UTC

    date/time    lat    long    hPa   cat  kts
1996-12-26 00   13.4   137.0    991    1                
1996-12-26 03   13.4   136.4    991    1                
1996-12-26 06   13.3   136.1    991    1                
1996-12-26 09   13.3   135.8    991    1                
1996-12-27 09   14.2   129.0    991    1                
1996-12-27 12   14.5   128.2    990    1                
1996-12-27 15   14.8   127.3    993    1                
1996-12-27 18   14.9   126.5    993    1                
1996-12-28 01   15.2   124.5    990    1    41          
1996-12-28 04   15.2   124.0    987    1    45          
1996-12-28 07   15.2   123.4    985    2    47          
1996-12-28 10   15.2   122.9    980    2    54          
1996-12-28 13   15.3   122.4    975    2    60          
1996-12-28 16   15.3   121.8    975    2    60          
1996-12-28 19   15.3   121.3    975    2    60          
1996-12-28 22   15.4   120.7    975    2    60          
1996-12-29 01   15.4   120.4    975    2    60          
1996-12-29 04   15.4   120.1    980    2    54          
1996-12-29 07   15.5   119.8    980    2    54          
1996-12-29 10   15.5   119.7    980    2    54          
1996-12-29 13   15.5   119.6    980    2    54          
1996-12-29 16   15.7   119.5    980    2    54          
1996-12-29 19   15.9   119.3    980    2    54          
1996-12-29 22   16.1   119.1    980    2    54          
1996-12-30 01   16.3   118.9    980    2    54          
1996-12-30 04   16.6   118.6    985    2    47          
1996-12-30 07   16.9   118.2    985    2    47          
1996-12-30 10   17.1   117.7    985    2    47          
1996-12-30 13   17.1   117.5    985    2    47          
1996-12-30 16   17.1   117.1    990    1    41          
1996-12-30 19   17.1   116.8    990    1    41          
1996-12-30 22   17.1   116.5    990    1    41          
1996-12-31 01   17.2   116.1    990    1    41          
1996-12-31 04   17.5   115.7    990    1    41          
1996-12-31 07   17.7   115.3    995    1    35          
1996-12-31 10   17.8   115.0    995    1    35          
1996-12-31 13   17.8   114.6    998         29          
1996-12-31 16   17.7   114.1    998         29          
1996-12-31 19   17.6   113.7    998         29          
1996-12-31 22   17.5   113.3    998         29          
1997-01-01 01   17.4   112.8    998         29          
1997-01-01 04   17.5   112.3    998         29          
1997-01-01 07   17.6   111.8    998         29          
1997-01-02 01   16.9   109.4   1000         27          
1997-01-03 01   18.6   105.3   1000         27          
Winds are 10-min average.

Tropical cyclone tracks developed by Michael Bath using data from the Bureau of Meteorology and Google Maps.


[Australian Severe Weather index] [Copyright Notice] [Email Contacts] [Search This Site] [Privacy Policy]
Document: tropical_cyclone_phil.htm Updated: 30 May 2013